createdAt,value
2018-02-16T00:00:30.046Z,38.70
2018-02-16T00:02:58.017Z,33.03
2018-02-16T00:05:25.894Z,34.83
2018-02-16T00:07:53.467Z,42.88
2018-02-16T00:10:20.948Z,31.33
2018-02-16T00:12:48.839Z,28.23
2018-02-16T00:15:16.320Z,31.05
2018-02-16T00:17:43.814Z,32.80
2018-02-16T00:20:11.300Z,44.42
2018-02-16T00:22:38.790Z,32.10
2018-02-16T00:25:06.372Z,30.55
2018-02-16T00:27:33.936Z,32.53
2018-02-16T00:30:01.414Z,63.42
2018-02-16T00:32:29.400Z,36.08
2018-02-16T00:34:57.289Z,41.83
2018-02-16T00:37:25.196Z,42.05
2018-02-16T00:39:52.675Z,38.72
2018-02-16T00:42:20.184Z,28.10
2018-02-16T00:44:47.664Z,31.00
2018-02-16T00:47:15.138Z,29.65
2018-02-16T00:49:43.110Z,30.55
2018-02-16T00:52:10.596Z,33.38
2018-02-16T00:54:38.584Z,60.25
2018-02-16T00:57:06.458Z,41.45
2018-02-16T00:59:34.432Z,42.78
2018-02-16T01:02:01.998Z,59.63
2018-02-16T01:04:29.499Z,39.42
2018-02-16T01:06:56.985Z,31.48
2018-02-16T01:09:24.488Z,40.45
2018-02-16T01:11:51.976Z,28.67
2018-02-16T01:14:19.488Z,38.33
2018-02-16T01:16:46.972Z,23.85
2018-02-16T01:19:14.495Z,25.73
2018-02-16T01:21:42.073Z,22.45
2018-02-16T01:24:10.052Z,23.40
2018-02-16T01:26:37.536Z,32.22
2018-02-16T01:29:05.426Z,32.75
2018-02-16T01:31:32.908Z,20.50
2018-02-16T01:34:00.416Z,33.35
2018-02-16T01:36:27.972Z,34.40
2018-02-16T01:38:55.471Z,25.95
2018-02-16T01:41:22.956Z,23.85
2018-02-16T01:43:50.456Z,22.20
2018-02-16T01:46:17.936Z,23.52
2018-02-16T01:48:45.468Z,21.33
2018-02-16T01:51:13.443Z,33.20
2018-02-16T01:53:40.948Z,24.80
2018-02-16T01:56:08.492Z,20.73
2018-02-16T01:58:36.000Z,24.65
2018-02-16T02:01:03.492Z,36.60
2018-02-16T02:03:30.989Z,43.70
2018-02-16T02:05:58.575Z,28.98
2018-02-16T02:08:26.092Z,44.80
2018-02-16T02:10:53.584Z,28.55
2018-02-16T02:13:21.067Z,21.85
2018-02-16T02:15:48.568Z,29.30
2018-02-16T02:18:16.442Z,23.98
2018-02-16T02:20:44.348Z,25.83
2018-02-16T02:23:11.837Z,20.75
2018-02-16T02:25:39.340Z,23.52
2018-02-16T02:28:06.932Z,36.35
2018-02-16T02:30:34.946Z,16.85
2018-02-16T02:33:02.480Z,19.33
2018-02-16T02:35:30.059Z,35.25
2018-02-16T02:37:57.632Z,30.52
2018-02-16T02:40:25.136Z,22.83
2018-02-16T02:42:52.629Z,37.22
2018-02-16T02:45:20.132Z,19.05
2018-02-16T02:47:47.711Z,25.88
2018-02-16T02:50:15.225Z,22.95
2018-02-16T02:52:42.718Z,21.20
2018-02-16T02:55:10.216Z,19.10
2018-02-16T02:57:37.804Z,21.50
2018-02-16T03:00:05.692Z,20.12
2018-02-16T03:02:33.576Z,18.55
2018-02-16T03:05:01.468Z,30.42
2018-02-16T03:07:28.961Z,21.55
2018-02-16T03:09:56.481Z,15.13
2018-02-16T03:12:23.958Z,15.88
2018-02-16T03:14:51.927Z,17.12
2018-02-16T03:17:19.415Z,18.67
2018-02-16T03:19:47.312Z,17.73
2018-02-16T03:22:14.795Z,22.27
2018-02-16T03:24:42.296Z,14.87
2018-02-16T03:27:09.779Z,15.55
2018-02-16T03:29:37.270Z,19.25
2018-02-16T03:32:05.142Z,18.95
2018-02-16T03:34:32.715Z,21.12
2018-02-16T03:37:00.224Z,18.85
2018-02-16T03:39:27.708Z,21.37
2018-02-16T03:41:55.212Z,14.13
2018-02-16T03:44:22.696Z,16.65
2018-02-16T03:46:50.204Z,22.75
2018-02-16T03:49:17.696Z,12.75
2018-02-16T03:51:45.224Z,13.48
2018-02-16T03:54:13.092Z,16.60
2018-02-16T03:56:41.072Z,36.75
2018-02-16T03:59:08.644Z,22.23
2018-02-16T04:01:36.243Z,15.10
2018-02-16T04:04:03.724Z,14.40
2018-02-16T04:06:31.224Z,12.68
2018-02-16T04:08:58.702Z,13.73
2018-02-16T04:11:26.200Z,13.80
2018-02-16T04:13:54.085Z,13.73
2018-02-16T04:16:21.655Z,12.88
2018-02-16T04:18:49.536Z,14.87
2018-02-16T04:21:17.433Z,15.40
2018-02-16T04:23:44.920Z,17.35
2018-02-16T04:26:12.420Z,14.20
2018-02-16T04:28:39.924Z,13.80
2018-02-16T04:31:07.811Z,22.73
2018-02-16T04:33:35.787Z,23.77
2018-02-16T04:36:03.683Z,20.90
2018-02-16T04:38:31.555Z,16.77
2018-02-16T04:40:59.459Z,16.83
2018-02-16T04:43:26.997Z,13.75
2018-02-16T04:45:54.500Z,12.60
2018-02-16T04:48:22.036Z,11.65
2018-02-16T04:50:49.937Z,12.27
2018-02-16T04:53:17.414Z,10.88
2018-02-16T04:55:44.951Z,13.35
2018-02-16T04:58:12.436Z,10.68
2018-02-16T05:00:40.323Z,11.55
2018-02-16T05:03:08.204Z,10.65
2018-02-16T05:05:36.083Z,11.95
2018-02-16T05:08:03.981Z,11.50
2018-02-16T05:10:31.464Z,10.43
2018-02-16T05:12:58.996Z,12.20
2018-02-16T05:15:26.871Z,9.85
2018-02-16T05:17:54.372Z,11.18
2018-02-16T05:20:21.912Z,10.65
2018-02-16T05:22:49.402Z,11.38
2018-02-16T05:25:16.946Z,10.43
2018-02-16T05:27:44.445Z,10.38
2018-02-16T05:30:11.927Z,10.13
2018-02-16T05:32:39.429Z,10.77
2018-02-16T05:35:06.912Z,9.52
2018-02-16T05:37:34.412Z,9.85
2018-02-16T05:40:02.296Z,10.50
2018-02-16T05:42:30.271Z,11.27
2018-02-16T05:44:58.142Z,10.82
2018-02-16T05:47:25.747Z,10.68
2018-02-16T05:49:53.241Z,11.40
2018-02-16T05:52:20.744Z,10.20
2018-02-16T05:54:48.223Z,11.12
2018-02-16T05:57:15.736Z,12.00
2018-02-16T05:59:43.277Z,11.85
2018-02-16T06:02:11.175Z,11.05
2018-02-16T06:04:38.651Z,11.30
2018-02-16T06:07:06.156Z,25.77
2018-02-16T06:09:33.991Z,13.18
2018-02-16T06:12:01.496Z,11.35
2018-02-16T06:14:29.006Z,12.15
2018-02-16T06:16:56.521Z,10.05
2018-02-16T06:19:24.008Z,10.80
2018-02-16T06:21:51.587Z,11.50
2018-02-16T06:24:19.016Z,10.57
2018-02-16T06:26:46.920Z,11.75
2018-02-16T06:29:14.404Z,10.55
2018-02-16T06:31:41.884Z,10.75
2018-02-16T06:34:09.384Z,10.60
2018-02-16T06:36:36.987Z,10.40
2018-02-16T06:39:04.536Z,10.90
2018-02-16T06:41:32.016Z,11.12
2018-02-16T06:43:59.903Z,11.30
2018-02-16T06:46:27.863Z,11.52
2018-02-16T06:48:55.419Z,11.25
2018-02-16T06:51:22.899Z,14.45
2018-02-16T06:53:50.804Z,11.43
2018-02-16T06:56:18.767Z,12.68
2018-02-16T06:58:46.339Z,11.93
2018-02-16T07:01:13.824Z,13.50
2018-02-16T07:03:41.728Z,13.10
2018-02-16T07:06:09.212Z,13.40
2018-02-16T07:08:36.704Z,16.90
2018-02-16T07:11:04.230Z,16.25
2018-02-16T07:13:31.709Z,20.33
2018-02-16T07:15:59.243Z,17.37
2018-02-16T07:18:26.743Z,16.37
2018-02-16T07:20:54.228Z,18.95
2018-02-16T07:23:21.727Z,20.50
2018-02-16T07:25:49.211Z,20.65
2018-02-16T07:28:16.716Z,21.87
2018-02-16T07:30:44.205Z,20.58
2018-02-16T07:33:11.731Z,18.98
2018-02-16T07:35:39.220Z,25.62
2018-02-16T07:38:07.187Z,19.45
2018-02-16T07:40:34.763Z,20.23
2018-02-16T07:43:02.268Z,20.85
2018-02-16T07:45:29.742Z,21.77
2018-02-16T07:47:57.243Z,19.70
2018-02-16T07:50:24.732Z,17.75
2018-02-16T07:52:52.225Z,21.77
2018-02-16T07:55:20.104Z,20.92
2018-02-16T07:57:47.975Z,22.23
2018-02-16T08:00:15.543Z,20.50
2018-02-16T08:02:43.023Z,20.15
2018-02-16T08:05:10.920Z,22.02
2018-02-16T08:07:38.408Z,21.80
2018-02-16T08:10:05.902Z,24.80
2018-02-16T08:12:33.388Z,26.92
2018-02-16T08:15:00.889Z,24.05
2018-02-16T08:17:28.772Z,24.45
2018-02-16T08:19:56.740Z,24.63
2018-02-16T08:22:24.227Z,24.17
2018-02-16T08:24:52.129Z,22.83
2018-02-16T08:27:19.608Z,23.15
2018-02-16T08:29:47.108Z,22.05
2018-02-16T08:32:14.597Z,22.50
2018-02-16T08:34:42.176Z,20.98
2018-02-16T08:37:10.048Z,24.65
2018-02-16T08:39:37.552Z,23.12
2018-02-16T08:42:05.028Z,17.20
2018-02-16T08:44:32.532Z,15.75
2018-02-16T08:47:00.018Z,15.00
2018-02-16T08:49:27.518Z,17.55
2018-02-16T08:51:55.396Z,18.90
2018-02-16T08:54:23.296Z,18.35
2018-02-16T08:56:50.896Z,21.15
2018-02-16T08:59:18.401Z,17.85
2018-02-16T09:01:45.981Z,20.55
2018-02-16T09:04:13.870Z,20.23
2018-02-16T09:06:41.426Z,18.10
2018-02-16T09:09:08.932Z,18.33
2018-02-16T09:11:36.416Z,17.77
2018-02-16T09:14:03.921Z,17.23
2018-02-16T09:16:31.412Z,16.10
2018-02-16T09:18:58.986Z,15.85
2018-02-16T09:21:26.470Z,14.07
2018-02-16T09:23:54.449Z,13.52
2018-02-16T09:26:22.422Z,13.90
2018-02-16T09:28:49.995Z,13.93
2018-02-16T09:31:17.888Z,13.13
2018-02-16T09:33:45.767Z,13.80
2018-02-16T09:36:14.495Z,13.43
2018-02-16T09:38:42.980Z,13.10
2018-02-16T09:41:10.481Z,13.43
2018-02-16T09:43:37.964Z,12.73
2018-02-16T09:46:05.458Z,11.52
2018-02-16T09:48:32.944Z,12.05
2018-02-16T09:51:00.449Z,12.35
2018-02-16T09:53:27.971Z,11.95
2018-02-16T09:55:55.472Z,10.27
2018-02-16T09:58:23.016Z,11.95
2018-02-16T10:00:50.903Z,11.02
2018-02-16T10:03:18.793Z,11.23
2018-02-16T10:05:46.691Z,11.68
2018-02-16T10:08:14.176Z,10.90
2018-02-16T10:10:41.670Z,11.00
2018-02-16T10:13:09.153Z,13.32
2018-02-16T10:15:36.657Z,10.25
2018-02-16T10:18:04.198Z,11.60
2018-02-16T10:20:31.774Z,11.80
2018-02-16T10:22:59.251Z,10.30
2018-02-16T10:25:26.748Z,12.18
2018-02-16T10:27:54.227Z,12.98
2018-02-16T10:30:21.727Z,10.30
2018-02-16T10:32:49.226Z,10.18
2018-02-16T10:35:16.732Z,11.18
2018-02-16T10:37:44.216Z,9.23
2018-02-16T10:40:11.710Z,12.93
2018-02-16T10:42:39.195Z,10.85
2018-02-16T10:45:06.706Z,9.95
2018-02-16T10:47:34.188Z,9.57
2018-02-16T10:50:01.728Z,9.60
2018-02-16T10:52:29.708Z,10.43
2018-02-16T10:54:57.186Z,10.25
2018-02-16T10:57:25.081Z,10.20
2018-02-16T10:59:52.572Z,10.65
2018-02-16T11:02:25.823Z,10.88
2018-02-16T11:04:59.043Z,9.90
2018-02-16T11:07:32.602Z,10.23
2018-02-16T11:10:00.092Z,10.85
2018-02-16T11:12:27.596Z,10.20
2018-02-16T11:14:55.493Z,8.57
2018-02-16T11:17:23.016Z,7.55
2018-02-16T11:19:50.494Z,7.10
2018-02-16T11:22:18.017Z,6.57
2018-02-16T11:24:45.509Z,7.22
2018-02-16T11:27:13.036Z,6.60
2018-02-16T11:29:41.006Z,8.63
2018-02-16T11:32:08.536Z,6.75
2018-02-16T11:34:36.052Z,6.60
2018-02-16T11:37:03.987Z,6.80
2018-02-16T11:39:31.542Z,7.35
2018-02-16T11:41:59.033Z,7.35
2018-02-16T11:44:26.523Z,6.43
2018-02-16T11:46:54.160Z,7.40
2018-02-16T11:49:21.693Z,7.37
2018-02-16T11:51:49.686Z,6.40
2018-02-16T11:54:17.572Z,6.60
2018-02-16T11:56:45.121Z,7.82
2018-02-16T11:59:12.681Z,6.50
2018-02-16T12:01:40.275Z,6.07
2018-02-16T12:04:08.202Z,6.28
2018-02-16T12:06:35.701Z,6.65
2018-02-16T12:09:03.203Z,6.18
2018-02-16T12:11:31.078Z,5.85
2018-02-16T12:13:58.966Z,4.90
2018-02-16T12:16:26.953Z,5.05
2018-02-16T12:18:54.460Z,5.22
2018-02-16T12:21:21.968Z,4.55
2018-02-16T12:23:49.521Z,4.40
2018-02-16T12:26:17.004Z,3.40
2018-02-16T12:28:44.578Z,3.62
2018-02-16T12:31:12.065Z,3.60
2018-02-16T12:33:39.963Z,4.55
2018-02-16T12:36:07.438Z,5.05
2018-02-16T12:38:34.964Z,4.22
2018-02-16T12:41:02.452Z,3.53
2018-02-16T12:43:30.351Z,3.65
2018-02-16T12:45:57.836Z,3.62
2018-02-16T12:48:25.380Z,3.00
2018-02-16T12:50:53.260Z,2.17
2018-02-16T12:53:21.185Z,3.83
2018-02-16T12:55:48.700Z,3.75
2018-02-16T12:58:16.301Z,3.60
2018-02-16T13:00:43.848Z,3.60
2018-02-16T13:03:11.738Z,2.83
2018-02-16T13:05:39.616Z,3.53
2018-02-16T13:08:07.120Z,3.28
2018-02-16T13:10:34.599Z,3.65
2018-02-16T13:13:02.093Z,3.90
2018-02-16T13:15:29.574Z,3.75
2018-02-16T13:17:57.090Z,3.55
2018-02-16T13:20:24.577Z,3.35
2018-02-16T13:22:52.207Z,3.47
2018-02-16T13:25:20.588Z,3.97
2018-02-16T13:27:48.100Z,3.40
2018-02-16T13:30:19.298Z,3.40
2018-02-16T13:32:47.129Z,3.50
2018-02-16T13:35:14.631Z,3.53
2018-02-16T13:37:42.269Z,3.53
2018-02-16T13:40:09.825Z,3.45
2018-02-16T13:42:37.776Z,4.05
2018-02-16T13:45:05.270Z,3.92
2018-02-16T13:47:32.910Z,3.50
2018-02-16T13:50:00.512Z,2.80
2018-02-16T13:52:28.027Z,3.45
2018-02-16T13:54:55.528Z,3.35
2018-02-16T13:57:23.059Z,3.83
2018-02-16T13:59:50.551Z,3.70
2018-02-16T14:02:18.203Z,3.80
2018-02-16T14:04:45.741Z,3.03
2018-02-16T14:07:13.227Z,3.75
2018-02-16T14:09:41.124Z,3.37
2018-02-16T14:12:08.620Z,3.53
2018-02-16T14:14:36.135Z,3.65
2018-02-16T14:17:03.606Z,3.80
2018-02-16T14:19:31.130Z,4.78
2018-02-16T14:21:58.603Z,3.80
2018-02-16T14:24:26.288Z,4.32
2018-02-16T14:26:53.771Z,3.65
2018-02-16T14:29:21.312Z,3.83
2018-02-16T14:31:48.792Z,3.40
2018-02-16T14:34:16.388Z,3.67
2018-02-16T14:36:43.864Z,3.30
2018-02-16T14:39:11.364Z,3.70
2018-02-16T14:41:39.800Z,4.00
2018-02-16T14:44:07.325Z,3.35
2018-02-16T14:46:35.210Z,3.30
2018-02-16T14:49:03.101Z,3.65
2018-02-16T14:51:30.675Z,3.45
2018-02-16T14:53:58.204Z,4.28
2018-02-16T14:56:25.715Z,4.00
2018-02-16T14:58:53.299Z,4.72
2018-02-16T15:01:20.780Z,3.92
2018-02-16T15:03:48.264Z,4.32
2018-02-16T15:06:15.777Z,3.62
2018-02-16T15:08:43.643Z,3.25
2018-02-16T15:11:11.146Z,4.10
2018-02-16T15:13:38.667Z,3.95
2018-02-16T15:16:06.155Z,4.32
2018-02-16T15:18:33.677Z,3.60
2018-02-16T15:21:01.208Z,3.60
2018-02-16T15:23:28.810Z,3.45
2018-02-16T15:25:56.360Z,4.30
2018-02-16T15:28:24.300Z,3.55
2018-02-16T15:30:51.808Z,3.60
2018-02-16T15:33:19.879Z,3.42
2018-02-16T15:35:47.450Z,3.60
2018-02-16T15:38:14.939Z,3.55
2018-02-16T15:40:42.860Z,3.80
2018-02-16T15:43:10.356Z,2.85
2018-02-16T15:45:37.856Z,4.15
2018-02-16T15:48:05.723Z,3.70
2018-02-16T15:50:33.225Z,3.53
2018-02-16T15:53:00.699Z,3.78
2018-02-16T15:55:28.204Z,3.70
2018-02-16T15:57:55.687Z,3.37
2018-02-16T16:00:23.194Z,3.05
2018-02-16T16:02:51.064Z,2.95
2018-02-16T16:05:18.568Z,2.60
2018-02-16T16:07:46.108Z,3.12
2018-02-16T16:10:14.013Z,2.97
2018-02-16T16:12:41.497Z,2.95
2018-02-16T16:15:08.997Z,2.75
2018-02-16T16:17:36.482Z,2.85
2018-02-16T16:20:03.990Z,2.80
2018-02-16T16:22:31.476Z,2.40
2018-02-16T16:24:58.976Z,2.55
2018-02-16T16:27:26.461Z,3.12
2018-02-16T16:29:53.953Z,3.33
2018-02-16T16:32:21.854Z,3.08
2018-02-16T16:34:49.405Z,3.45
2018-02-16T16:37:17.295Z,3.37
2018-02-16T16:39:45.180Z,4.15
2018-02-16T16:42:12.693Z,6.05
2018-02-16T16:44:40.183Z,6.50
2018-02-16T16:47:07.684Z,5.75
2018-02-16T16:49:35.564Z,4.80
2018-02-16T16:52:03.460Z,4.90
2018-02-16T16:54:30.948Z,5.10
2018-02-16T16:56:58.477Z,5.30
2018-02-16T16:59:26.368Z,4.85
2018-02-16T17:01:54.265Z,4.05
2018-02-16T17:04:21.805Z,5.40
2018-02-16T17:06:49.306Z,5.20
2018-02-16T17:09:16.793Z,5.43
2018-02-16T17:11:44.287Z,4.68
2018-02-16T17:14:11.774Z,4.75
2018-02-16T17:16:39.267Z,4.50
2018-02-16T17:19:07.144Z,4.60
2018-02-16T17:21:35.037Z,5.43
2018-02-16T17:24:02.916Z,5.82
2018-02-16T17:26:30.813Z,7.65
2018-02-16T17:28:58.300Z,8.23
2018-02-16T17:31:25.808Z,5.47
2018-02-16T17:33:53.283Z,5.70
2018-02-16T17:36:20.789Z,7.00
2018-02-16T17:38:48.276Z,5.60
2018-02-16T17:41:15.774Z,5.07
2018-02-16T17:43:43.257Z,5.03
2018-02-16T17:46:10.762Z,7.22
2018-02-16T17:48:38.720Z,8.55
2018-02-16T17:51:06.229Z,6.85
2018-02-16T17:53:33.712Z,5.72
2018-02-16T17:56:01.197Z,6.03
2018-02-16T17:58:28.703Z,5.85
2018-02-16T18:00:56.191Z,7.25
2018-02-16T18:03:23.731Z,8.63
2018-02-16T18:05:51.218Z,6.05
2018-02-16T18:08:19.122Z,6.30
2018-02-16T18:10:46.604Z,9.60
2018-02-16T18:13:14.132Z,7.60
2018-02-16T18:15:41.616Z,8.13
2018-02-16T18:18:09.604Z,8.43
2018-02-16T18:20:37.488Z,8.82
2018-02-16T18:23:05.408Z,10.02
2018-02-16T18:25:32.896Z,12.27
2018-02-16T18:28:00.469Z,11.85
2018-02-16T18:30:27.955Z,12.95
2018-02-16T18:32:55.464Z,11.32
2018-02-16T18:35:22.985Z,6.30
2018-02-16T18:37:50.478Z,6.10
2018-02-16T18:40:17.951Z,6.05
2018-02-16T18:42:45.857Z,10.23
2018-02-16T18:45:13.348Z,11.48
2018-02-16T18:47:40.873Z,8.10
2018-02-16T18:50:08.743Z,8.25
2018-02-16T18:52:36.248Z,11.45
2018-02-16T18:55:03.748Z,8.48
2018-02-16T18:57:31.265Z,8.32
2018-02-16T18:59:59.144Z,9.30
2018-02-16T19:02:27.041Z,7.78
2018-02-16T19:04:54.529Z,8.27
2018-02-16T19:07:22.029Z,7.68
2018-02-16T19:09:49.515Z,8.57
2018-02-16T19:12:17.021Z,9.18
2018-02-16T19:14:44.585Z,9.85
2018-02-16T19:17:12.112Z,8.48
2018-02-16T19:19:39.587Z,8.10
2018-02-16T19:22:07.093Z,9.70
2018-02-16T19:24:35.124Z,9.25
2018-02-16T19:27:02.974Z,11.30
2018-02-16T19:29:30.956Z,11.43
2018-02-16T19:31:58.736Z,12.10
2018-02-16T19:34:26.255Z,9.10
2018-02-16T19:36:53.743Z,11.65
2018-02-16T19:39:22.150Z,11.35
2018-02-16T19:41:49.729Z,11.85
2018-02-16T19:44:18.031Z,12.60
2018-02-16T19:46:45.556Z,14.80
2018-02-16T19:49:13.065Z,9.63
2018-02-16T19:51:40.547Z,8.68
2018-02-16T19:54:08.093Z,10.18
2018-02-16T19:56:36.301Z,13.00
2018-02-16T19:59:03.840Z,13.10
2018-02-16T20:01:32.060Z,14.25
2018-02-16T20:03:59.775Z,14.68
2018-02-16T20:06:27.787Z,13.52
2018-02-16T20:08:55.345Z,14.95
2018-02-16T20:11:23.784Z,14.60
2018-02-16T20:13:51.465Z,13.85
2018-02-16T20:16:19.749Z,8.93
2018-02-16T20:18:47.425Z,12.77
2018-02-16T20:21:14.909Z,17.90
2018-02-16T20:23:42.567Z,16.30
2018-02-16T20:26:10.549Z,17.87
2018-02-16T20:28:38.105Z,18.10
2018-02-16T20:31:06.011Z,16.15
2018-02-16T20:33:33.549Z,15.35
2018-02-16T20:36:01.436Z,18.65
2018-02-16T20:38:29.362Z,19.92
2018-02-16T20:40:56.842Z,13.10
2018-02-16T20:43:24.683Z,13.07
2018-02-16T20:45:52.205Z,18.37
2018-02-16T20:48:19.713Z,16.20
2018-02-16T20:50:47.605Z,14.95
2018-02-16T20:53:15.213Z,12.35
2018-02-16T20:55:42.704Z,12.07
2018-02-16T20:58:10.188Z,13.07
2018-02-16T21:00:37.684Z,13.35
2018-02-16T21:03:05.174Z,14.73
2018-02-16T21:05:32.676Z,12.65
2018-02-16T21:08:00.169Z,12.40
2018-02-16T21:10:27.684Z,19.58
2018-02-16T21:12:55.181Z,20.95
2018-02-16T21:15:22.746Z,22.25
2018-02-16T21:17:50.232Z,16.70
2018-02-16T21:20:17.772Z,19.00
2018-02-16T21:22:45.264Z,18.60
2018-02-16T21:25:12.802Z,13.75
2018-02-16T21:27:40.292Z,16.40
2018-02-16T21:30:07.819Z,12.98
2018-02-16T21:32:35.724Z,10.15
2018-02-16T21:35:03.237Z,9.43
2018-02-16T21:37:30.737Z,12.40
2018-02-16T21:39:58.635Z,12.98
2018-02-16T21:42:26.130Z,10.50
2018-02-16T21:44:53.640Z,11.45
2018-02-16T21:47:21.171Z,10.77
2018-02-16T21:49:48.680Z,11.10
2018-02-16T21:52:16.200Z,9.82
2018-02-16T21:54:43.711Z,9.98
2018-02-16T21:57:11.188Z,10.35
2018-02-16T21:59:38.688Z,12.40
2018-02-16T22:02:06.576Z,11.10
2018-02-16T22:04:34.482Z,11.77
2018-02-16T22:07:01.972Z,12.25
2018-02-16T22:09:29.481Z,9.55
2018-02-16T22:11:56.959Z,11.45
2018-02-16T22:14:24.858Z,10.75
2018-02-16T22:16:52.413Z,10.98
2018-02-16T22:19:20.337Z,10.48
2018-02-16T22:21:47.824Z,11.25
2018-02-16T22:24:15.333Z,10.57
2018-02-16T22:26:43.227Z,10.32
2018-02-16T22:29:11.119Z,9.85
2018-02-16T22:31:38.639Z,10.35
2018-02-16T22:34:06.241Z,10.50
2018-02-16T22:36:34.144Z,9.88
2018-02-16T22:39:01.633Z,9.55
2018-02-16T22:41:29.133Z,9.98
2018-02-16T22:43:56.628Z,10.57
2018-02-16T22:46:24.532Z,11.20
2018-02-16T22:48:52.016Z,10.50
2018-02-16T22:51:19.511Z,10.95
2018-02-16T22:53:46.993Z,9.93
2018-02-16T22:56:14.501Z,10.63
2018-02-16T22:58:42.389Z,11.25
2018-02-16T23:01:09.934Z,12.05
2018-02-16T23:03:37.415Z,10.55
2018-02-16T23:06:04.922Z,10.38
2018-02-16T23:08:32.416Z,10.68
2018-02-16T23:10:59.924Z,11.07
2018-02-16T23:13:27.816Z,11.40
2018-02-16T23:15:55.713Z,10.88
2018-02-16T23:18:23.249Z,11.48
2018-02-16T23:20:50.760Z,11.30
2018-02-16T23:23:18.293Z,11.50
2018-02-16T23:25:46.193Z,11.55
2018-02-16T23:28:13.684Z,10.95
2018-02-16T23:30:41.188Z,11.20
2018-02-16T23:33:08.667Z,11.38
2018-02-16T23:35:36.181Z,11.57
2018-02-16T23:38:03.734Z,10.52
2018-02-16T23:40:31.631Z,11.85
2018-02-16T23:42:59.065Z,12.02
2018-02-16T23:45:26.563Z,10.18
2018-02-16T23:47:54.106Z,11.45
2018-02-16T23:50:21.968Z,11.90
2018-02-16T23:52:49.472Z,10.95
2018-02-16T23:55:16.969Z,12.05
2018-02-16T23:57:44.578Z,11.82
